createdAt,value
2023-03-16T00:02:05.143Z,6.72
2023-03-16T00:04:32.458Z,6.38
2023-03-16T00:06:59.020Z,7.15
2023-03-16T00:09:31.051Z,6.60
2023-03-16T00:11:59.025Z,6.88
2023-03-16T00:14:26.360Z,6.07
2023-03-16T00:16:53.271Z,6.85
2023-03-16T00:19:19.849Z,6.70
2023-03-16T00:21:46.420Z,6.47
2023-03-16T00:24:12.998Z,6.40
2023-03-16T00:26:39.477Z,6.25
2023-03-16T00:29:05.982Z,7.05
2023-03-16T00:31:33.862Z,6.60
2023-03-16T00:34:02.657Z,6.38
2023-03-16T00:36:30.232Z,6.63
2023-03-16T00:38:56.758Z,5.80
2023-03-16T00:41:24.117Z,6.55
2023-03-16T00:43:51.710Z,5.93
2023-03-16T00:46:18.600Z,6.20
2023-03-16T00:48:47.253Z,5.90
2023-03-16T00:51:16.828Z,6.47
2023-03-16T00:53:45.449Z,6.38
2023-03-16T00:56:13.717Z,6.00
2023-03-16T00:58:43.082Z,6.13
2023-03-16T01:01:16.678Z,6.30
2023-03-16T01:03:43.579Z,5.80
2023-03-16T01:06:17.465Z,6.45
2023-03-16T01:08:44.404Z,6.28
2023-03-16T01:11:13.709Z,5.93
2023-03-16T01:13:40.428Z,6.03
2023-03-16T01:16:09.024Z,6.13
2023-03-16T01:18:35.636Z,5.82
2023-03-16T01:21:03.852Z,6.10
2023-03-16T01:23:32.930Z,5.97
2023-03-16T01:26:00.176Z,5.75
2023-03-16T01:28:30.101Z,6.68
2023-03-16T01:31:04.838Z,6.22
2023-03-16T01:33:33.763Z,5.80
2023-03-16T01:36:06.659Z,5.80
2023-03-16T01:38:42.882Z,5.75
2023-03-16T01:41:10.381Z,5.80
2023-03-16T01:43:39.498Z,5.65
2023-03-16T01:46:06.189Z,5.50
2023-03-16T01:49:08.146Z,6.13
2023-03-16T01:51:42.829Z,5.72
2023-03-16T01:54:14.534Z,4.90
2023-03-16T01:56:55.473Z,5.20
2023-03-16T01:59:24.854Z,5.90
2023-03-16T02:01:52.042Z,5.78
2023-03-16T02:04:23.784Z,4.97
2023-03-16T02:06:55.022Z,5.80
2023-03-16T02:09:23.286Z,5.45
2023-03-16T02:11:50.047Z,5.90
2023-03-16T02:14:16.971Z,5.75
2023-03-16T02:16:44.861Z,5.10
2023-03-16T02:19:17.406Z,5.93
2023-03-16T02:21:59.482Z,5.97
2023-03-16T02:24:26.062Z,5.90
2023-03-16T02:26:58.525Z,5.55
2023-03-16T02:29:42.477Z,5.35
2023-03-16T02:32:10.295Z,5.72
2023-03-16T02:34:37.548Z,5.97
2023-03-16T02:37:04.432Z,6.45
2023-03-16T02:39:31.612Z,5.28
2023-03-16T02:42:01.220Z,6.35
2023-03-16T02:44:33.619Z,5.82
2023-03-16T02:47:03.893Z,5.68
2023-03-16T02:49:35.681Z,5.40
2023-03-16T02:52:03.259Z,4.88
2023-03-16T02:54:31.123Z,5.30
2023-03-16T02:56:57.766Z,4.80
2023-03-16T02:59:25.775Z,5.85
2023-03-16T03:01:52.456Z,5.40
2023-03-16T03:04:19.227Z,5.53
2023-03-16T03:06:48.495Z,5.38
2023-03-16T03:09:15.174Z,5.55
2023-03-16T03:11:42.516Z,5.40
2023-03-16T03:14:09.129Z,5.45
2023-03-16T03:16:38.271Z,5.78
2023-03-16T03:19:05.072Z,5.25
2023-03-16T03:21:35.831Z,5.57
2023-03-16T03:24:02.539Z,4.63
2023-03-16T03:26:29.366Z,5.22
2023-03-16T03:28:59.091Z,5.63
2023-03-16T03:31:25.741Z,5.07
2023-03-16T03:33:53.574Z,5.28
2023-03-16T03:36:22.159Z,4.40
2023-03-16T03:38:55.109Z,5.05
2023-03-16T03:41:23.642Z,5.07
2023-03-16T03:43:51.869Z,4.85
2023-03-16T03:46:19.171Z,4.63
2023-03-16T03:48:45.861Z,4.25
2023-03-16T03:51:12.495Z,4.68
2023-03-16T03:53:44.966Z,5.00
2023-03-16T03:56:22.722Z,4.88
2023-03-16T03:58:49.675Z,4.80
2023-03-16T04:01:24.670Z,4.32
2023-03-16T04:03:51.278Z,4.55
2023-03-16T04:06:18.158Z,5.03
2023-03-16T04:08:44.844Z,4.72
2023-03-16T04:11:15.008Z,4.80
2023-03-16T04:13:41.821Z,4.90
2023-03-16T04:16:09.241Z,5.50
2023-03-16T04:18:42.439Z,4.68
2023-03-16T04:21:14.423Z,4.68
2023-03-16T04:23:42.450Z,4.65
2023-03-16T04:26:08.984Z,5.03
2023-03-16T04:28:35.582Z,4.68
2023-03-16T04:31:07.155Z,4.78
2023-03-16T04:33:39.727Z,4.75
2023-03-16T04:36:06.963Z,5.25
2023-03-16T04:38:36.327Z,4.13
2023-03-16T04:41:04.338Z,4.60
2023-03-16T04:43:38.466Z,4.85
2023-03-16T04:46:19.498Z,4.63
2023-03-16T04:48:46.228Z,4.55
2023-03-16T04:51:12.812Z,4.43
2023-03-16T04:53:45.212Z,4.35
2023-03-16T04:56:23.433Z,4.60
2023-03-16T04:58:57.111Z,4.97
2023-03-16T05:01:26.061Z,5.18
2023-03-16T05:03:59.559Z,4.57
2023-03-16T05:06:27.318Z,4.75
2023-03-16T05:08:54.717Z,4.35
2023-03-16T05:11:21.258Z,4.93
2023-03-16T05:13:55.220Z,5.43
2023-03-16T05:16:22.455Z,4.78
2023-03-16T05:18:50.187Z,5.13
2023-03-16T05:21:16.759Z,5.13
2023-03-16T05:23:56.338Z,5.35
2023-03-16T05:26:22.887Z,4.82
2023-03-16T05:28:50.409Z,5.25
2023-03-16T05:31:18.996Z,5.38
2023-03-16T05:33:52.217Z,4.97
2023-03-16T05:36:20.387Z,6.05
2023-03-16T05:38:51.411Z,4.75
2023-03-16T05:41:36.703Z,5.78
2023-03-16T05:44:29.418Z,5.45
2023-03-16T05:47:15.421Z,5.40
2023-03-16T05:49:46.214Z,5.68
2023-03-16T05:52:22.923Z,5.20
2023-03-16T05:54:49.508Z,6.18
2023-03-16T05:57:16.044Z,6.10
2023-03-16T05:59:45.109Z,5.18
2023-03-16T06:02:12.763Z,5.18
2023-03-16T06:04:40.072Z,6.07
2023-03-16T06:07:06.961Z,5.80
2023-03-16T06:09:34.193Z,6.40
2023-03-16T06:12:05.575Z,6.03
2023-03-16T06:14:34.593Z,5.72
2023-03-16T06:17:01.348Z,6.15
2023-03-16T06:19:28.772Z,6.40
2023-03-16T06:21:59.414Z,6.63
2023-03-16T06:24:27.646Z,6.32
2023-03-16T06:26:54.302Z,6.60
2023-03-16T06:29:25.370Z,6.50
2023-03-16T06:31:52.668Z,6.28
2023-03-16T06:34:19.815Z,6.90
2023-03-16T06:36:46.504Z,7.32
2023-03-16T06:39:14.319Z,6.50
2023-03-16T06:41:42.989Z,6.78
2023-03-16T06:44:12.276Z,6.57
2023-03-16T06:46:47.271Z,7.30
2023-03-16T06:49:13.868Z,7.20
2023-03-16T06:51:40.384Z,6.70
2023-03-16T06:54:07.041Z,7.07
2023-03-16T06:56:37.394Z,7.47
2023-03-16T06:59:04.065Z,6.88
2023-03-16T07:01:31.727Z,7.07
2023-03-16T07:03:58.506Z,7.55
2023-03-16T07:06:29.246Z,7.03
2023-03-16T07:08:55.804Z,6.65
2023-03-16T07:11:23.663Z,7.80
2023-03-16T07:13:51.626Z,7.50
2023-03-16T07:16:19.635Z,7.10
2023-03-16T07:18:46.259Z,7.93
2023-03-16T07:21:15.488Z,7.15
2023-03-16T07:23:43.153Z,7.32
2023-03-16T07:26:11.934Z,7.60
2023-03-16T07:28:47.904Z,7.45
2023-03-16T07:31:16.127Z,8.18
2023-03-16T07:33:42.933Z,7.43
2023-03-16T07:36:13.437Z,8.57
2023-03-16T07:38:45.953Z,7.90
2023-03-16T07:41:13.936Z,8.20
2023-03-16T07:43:41.119Z,7.78
2023-03-16T07:46:13.447Z,7.63
2023-03-16T07:48:42.468Z,5.95
2023-03-16T07:51:13.041Z,8.10
2023-03-16T07:53:40.534Z,7.72
2023-03-16T07:56:17.989Z,8.45
2023-03-16T07:58:47.611Z,8.57
2023-03-16T08:01:14.708Z,7.40
2023-03-16T08:03:42.009Z,7.97
2023-03-16T08:06:08.590Z,7.50
2023-03-16T08:08:36.149Z,7.97
2023-03-16T08:11:02.959Z,7.13
2023-03-16T08:13:43.851Z,6.80
2023-03-16T08:16:13.083Z,6.80
2023-03-16T08:18:43.583Z,6.45
2023-03-16T08:21:10.633Z,6.25
2023-03-16T08:23:37.334Z,6.80
2023-03-16T08:26:08.842Z,6.75
2023-03-16T08:28:36.244Z,6.78
2023-03-16T08:31:08.790Z,6.35
2023-03-16T08:33:41.444Z,6.78
2023-03-16T08:36:11.720Z,6.97
2023-03-16T08:38:39.956Z,7.07
2023-03-16T08:41:09.365Z,6.90
2023-03-16T08:43:37.400Z,6.95
2023-03-16T08:46:05.369Z,6.80
2023-03-16T08:48:42.525Z,7.28
2023-03-16T08:51:11.495Z,7.38
2023-03-16T08:53:38.076Z,7.45
2023-03-16T08:56:06.221Z,7.78
2023-03-16T08:58:34.078Z,7.47
2023-03-16T09:01:01.700Z,7.63
2023-03-16T09:03:28.469Z,7.88
2023-03-16T09:06:02.270Z,7.78
2023-03-16T09:08:29.289Z,7.18
2023-03-16T09:11:03.869Z,8.65
2023-03-16T09:13:30.875Z,7.78
2023-03-16T09:15:57.938Z,8.20
2023-03-16T09:18:26.170Z,7.55
2023-03-16T09:20:53.452Z,7.57
2023-03-16T09:23:20.886Z,7.03
2023-03-16T09:25:48.054Z,7.57
2023-03-16T09:28:14.626Z,7.18
2023-03-16T09:30:43.543Z,6.60
2023-03-16T09:33:10.172Z,6.95
2023-03-16T09:35:37.199Z,6.10
2023-03-16T09:38:05.898Z,6.25
2023-03-16T09:40:36.489Z,6.32
2023-03-16T09:43:07.163Z,6.43
2023-03-16T09:45:45.590Z,6.68
2023-03-16T09:48:12.788Z,5.88
2023-03-16T09:50:48.245Z,6.90
2023-03-16T09:53:25.448Z,7.68
2023-03-16T09:56:11.221Z,6.80
2023-03-16T09:58:37.716Z,6.15
2023-03-16T10:01:25.618Z,6.80
2023-03-16T10:04:06.839Z,6.57
2023-03-16T10:06:34.269Z,6.10
2023-03-16T10:09:11.190Z,6.15
2023-03-16T10:11:49.459Z,5.85
2023-03-16T10:14:40.046Z,6.07
2023-03-16T10:17:18.052Z,5.25
2023-03-16T10:20:14.987Z,6.05
2023-03-16T10:22:46.974Z,5.70
2023-03-16T10:25:34.422Z,5.95
2023-03-16T10:28:00.899Z,5.90
2023-03-16T10:30:30.012Z,5.38
2023-03-16T10:33:01.448Z,5.75
2023-03-16T10:35:48.749Z,5.68
2023-03-16T10:38:38.498Z,5.72
2023-03-16T10:41:35.372Z,4.85
2023-03-16T10:44:07.239Z,5.13
2023-03-16T10:46:48.250Z,5.63
2023-03-16T10:49:22.223Z,5.47
2023-03-16T10:51:49.168Z,5.53
2023-03-16T10:54:21.739Z,5.57
2023-03-16T10:56:50.483Z,4.85
2023-03-16T10:59:33.993Z,4.32
2023-03-16T11:02:03.738Z,4.40
2023-03-16T11:04:33.952Z,4.07
2023-03-16T11:07:00.641Z,4.18
2023-03-16T11:09:33.122Z,4.30
2023-03-16T11:12:01.103Z,4.45
2023-03-16T11:14:28.606Z,4.28
2023-03-16T11:17:02.119Z,3.88
2023-03-16T11:19:34.539Z,3.50
2023-03-16T11:22:23.613Z,3.50
2023-03-16T11:25:09.275Z,3.83
2023-03-16T11:27:52.881Z,3.50
2023-03-16T11:30:29.111Z,3.95
2023-03-16T11:32:55.895Z,3.80
2023-03-16T11:35:58.419Z,3.60
2023-03-16T11:38:33.401Z,3.75
2023-03-16T11:41:02.106Z,4.07
2023-03-16T11:43:43.472Z,3.45
2023-03-16T11:46:16.992Z,3.75
2023-03-16T11:48:46.259Z,3.70
2023-03-16T11:51:30.124Z,3.55
2023-03-16T11:53:59.427Z,3.80
2023-03-16T11:56:32.342Z,3.67
2023-03-16T11:59:04.394Z,3.45
2023-03-16T12:02:19.033Z,4.15
2023-03-16T12:05:07.866Z,3.80
2023-03-16T12:08:16.828Z,3.63
2023-03-16T12:10:52.612Z,4.20
2023-03-16T12:13:35.219Z,3.92
2023-03-16T12:16:39.106Z,4.28
2023-03-16T12:19:32.958Z,4.03
2023-03-16T12:22:18.333Z,3.92
2023-03-16T12:24:46.936Z,4.53
2023-03-16T12:27:22.522Z,4.18
2023-03-16T12:29:57.717Z,4.30
2023-03-16T12:32:34.610Z,3.92
2023-03-16T12:35:17.102Z,4.00
2023-03-16T12:38:01.690Z,3.95
2023-03-16T12:40:31.952Z,3.78
2023-03-16T12:43:10.814Z,4.30
2023-03-16T12:46:07.928Z,4.50
2023-03-16T12:48:47.980Z,3.88
2023-03-16T12:51:14.527Z,4.10
2023-03-16T12:53:44.813Z,4.13
2023-03-16T12:56:15.147Z,3.67
2023-03-16T12:58:48.394Z,4.10
2023-03-16T13:01:18.443Z,4.05
2023-03-16T13:03:48.037Z,4.43
2023-03-16T13:06:21.029Z,3.67
2023-03-16T13:08:52.317Z,3.97
2023-03-16T13:11:18.893Z,3.72
2023-03-16T13:13:59.659Z,3.35
2023-03-16T13:16:29.405Z,3.45
2023-03-16T13:18:56.430Z,3.42
2023-03-16T13:21:39.896Z,3.60
2023-03-16T13:24:34.130Z,3.60
2023-03-16T13:27:19.309Z,3.83
2023-03-16T13:29:54.910Z,3.38
2023-03-16T13:32:22.116Z,3.30
2023-03-16T13:34:50.643Z,3.20
2023-03-16T13:37:19.699Z,3.38
2023-03-16T13:40:20.068Z,3.55
2023-03-16T13:42:49.711Z,2.72
2023-03-16T13:45:21.284Z,2.92
2023-03-16T13:47:49.063Z,3.25
2023-03-16T13:50:16.457Z,3.33
2023-03-16T13:52:44.485Z,2.97
2023-03-16T13:55:26.613Z,3.50
2023-03-16T13:57:53.350Z,2.88
2023-03-16T14:00:32.522Z,2.85
2023-03-16T14:03:04.257Z,3.00
2023-03-16T14:05:34.529Z,3.08
2023-03-16T14:08:02.074Z,2.70
2023-03-16T14:10:34.190Z,2.97
2023-03-16T14:13:32.424Z,2.65
2023-03-16T14:16:01.569Z,2.90
2023-03-16T14:18:35.989Z,2.70
2023-03-16T14:21:08.024Z,3.15
2023-03-16T14:23:38.171Z,3.03
2023-03-16T14:26:08.880Z,3.05
2023-03-16T14:28:35.414Z,3.05
2023-03-16T14:31:06.049Z,2.50
2023-03-16T14:33:35.424Z,2.53
2023-03-16T14:36:11.377Z,2.33
2023-03-16T14:38:40.546Z,2.88
2023-03-16T14:41:22.853Z,2.50
2023-03-16T14:43:55.481Z,2.22
2023-03-16T14:46:29.312Z,2.20
2023-03-16T14:49:21.848Z,2.30
2023-03-16T14:51:50.258Z,2.30
2023-03-16T14:54:18.352Z,1.98
2023-03-16T14:56:52.932Z,2.03
2023-03-16T14:59:20.296Z,1.88
2023-03-16T15:01:47.530Z,2.20
2023-03-16T15:04:16.159Z,2.10
2023-03-16T15:06:42.783Z,2.13
2023-03-16T15:09:32.657Z,1.98
2023-03-16T15:11:59.385Z,1.77
2023-03-16T15:14:45.256Z,2.10
2023-03-16T15:17:11.775Z,2.25
2023-03-16T15:19:38.360Z,2.40
2023-03-16T15:22:05.099Z,2.30
2023-03-16T15:24:33.184Z,2.20
2023-03-16T15:27:00.033Z,2.33
2023-03-16T15:29:27.071Z,2.05
2023-03-16T15:31:54.666Z,2.33
2023-03-16T15:34:22.460Z,1.92
2023-03-16T15:36:49.159Z,2.10
2023-03-16T15:39:21.674Z,2.13
2023-03-16T15:41:48.307Z,2.30
2023-03-16T15:44:14.808Z,2.50
2023-03-16T15:46:41.524Z,2.35
2023-03-16T15:49:08.311Z,2.17
2023-03-16T15:51:35.616Z,2.30
2023-03-16T15:54:06.878Z,2.30
2023-03-16T15:59:13.474Z,2.17
2023-03-16T16:01:47.726Z,2.58
2023-03-16T16:04:22.433Z,2.22
2023-03-16T16:06:49.998Z,2.38
2023-03-16T16:09:17.120Z,2.47
2023-03-16T16:11:44.257Z,2.50
2023-03-16T16:14:15.620Z,2.40
2023-03-16T16:19:14.256Z,2.33
2023-03-16T16:21:41.379Z,2.50
2023-03-16T16:24:09.012Z,2.63
2023-03-16T16:26:48.972Z,2.40
2023-03-16T16:29:22.114Z,2.75
2023-03-16T16:34:18.045Z,2.58
2023-03-16T16:36:45.015Z,2.35
2023-03-16T16:39:12.520Z,2.75
2023-03-16T16:41:40.498Z,2.97
2023-03-16T16:44:16.845Z,2.47
2023-03-16T16:46:43.770Z,2.90
2023-03-16T16:49:19.717Z,2.65
2023-03-16T16:51:46.395Z,2.90
2023-03-16T16:54:24.104Z,2.78
2023-03-16T16:56:52.565Z,3.63
2023-03-16T16:59:24.214Z,2.90
2023-03-16T17:01:52.252Z,3.50
2023-03-16T17:04:23.337Z,2.88
2023-03-16T17:06:52.174Z,3.45
2023-03-16T17:09:18.939Z,2.88
2023-03-16T17:11:45.792Z,3.17
2023-03-16T17:14:16.945Z,3.03
2023-03-16T17:19:19.776Z,3.42
2023-03-16T17:21:46.456Z,3.17
2023-03-16T17:24:12.952Z,3.63
2023-03-16T17:26:45.736Z,3.65
2023-03-16T17:29:24.259Z,3.75
2023-03-16T17:31:51.330Z,3.72
2023-03-16T17:34:20.877Z,3.75
2023-03-16T17:36:47.687Z,3.90
2023-03-16T17:39:22.386Z,3.90
2023-03-16T17:41:55.206Z,4.10
2023-03-16T17:44:21.727Z,4.20
2023-03-16T17:46:48.684Z,4.68
2023-03-16T17:49:20.533Z,3.83
2023-03-16T17:51:47.821Z,4.38
2023-03-16T17:54:14.437Z,4.30
2023-03-16T17:56:41.651Z,5.00
2023-03-16T17:59:15.852Z,4.38
2023-03-16T18:01:43.722Z,4.65
2023-03-16T18:04:22.073Z,4.65
2023-03-16T18:06:49.575Z,5.00
2023-03-16T18:09:18.149Z,4.63
2023-03-16T18:11:47.487Z,4.35
2023-03-16T18:14:34.713Z,4.65
2023-03-16T18:17:03.313Z,4.07
2023-03-16T18:19:31.656Z,5.32
2023-03-16T18:21:58.785Z,4.50
2023-03-16T18:24:28.050Z,4.90
2023-03-16T18:26:55.293Z,4.97
2023-03-16T18:29:22.389Z,4.47
2023-03-16T18:31:56.904Z,5.00
2023-03-16T18:34:23.986Z,4.07
2023-03-16T18:36:53.386Z,4.90
2023-03-16T18:39:21.296Z,4.60
2023-03-16T18:41:48.133Z,4.50
2023-03-16T18:44:21.656Z,4.90
2023-03-16T18:46:49.342Z,4.38
2023-03-16T18:49:36.414Z,3.92
2023-03-16T18:52:04.183Z,4.22
2023-03-16T18:54:32.546Z,4.45
2023-03-16T18:57:00.230Z,4.50
2023-03-16T18:59:27.312Z,4.78
2023-03-16T19:01:54.099Z,4.45
2023-03-16T19:04:29.379Z,4.68
2023-03-16T19:06:56.700Z,4.68
2023-03-16T19:09:30.991Z,4.43
2023-03-16T19:11:58.183Z,4.57
2023-03-16T19:14:31.564Z,4.50
2023-03-16T19:16:58.282Z,4.45
2023-03-16T19:19:25.492Z,4.53
2023-03-16T19:21:54.053Z,4.05
2023-03-16T19:24:48.061Z,4.07
2023-03-16T19:27:22.789Z,3.78
2023-03-16T19:29:53.636Z,4.32
2023-03-16T19:32:21.362Z,6.57
2023-03-16T19:34:48.774Z,5.65
2023-03-16T19:37:16.843Z,5.95
2023-03-16T19:39:43.857Z,4.93
2023-03-16T19:42:28.709Z,5.70
2023-03-16T19:44:55.246Z,3.95
2023-03-16T19:47:27.137Z,10.02
2023-03-16T19:49:53.888Z,3.53
2023-03-16T19:52:20.457Z,3.30
2023-03-16T19:54:47.036Z,3.88
2023-03-16T19:57:16.104Z,3.55
2023-03-16T19:59:45.450Z,3.08
2023-03-16T20:02:24.271Z,3.47
2023-03-16T20:04:51.630Z,3.60
2023-03-16T20:07:18.140Z,3.50
2023-03-16T20:09:44.960Z,3.50
2023-03-16T20:12:30.020Z,3.45
2023-03-16T20:14:57.081Z,3.38
2023-03-16T20:17:26.112Z,3.55
2023-03-16T20:19:52.997Z,3.42
2023-03-16T20:22:21.952Z,3.55
2023-03-16T20:24:50.616Z,3.35
2023-03-16T20:27:19.784Z,3.70
2023-03-16T20:29:46.850Z,3.45
2023-03-16T20:32:18.850Z,3.60
2023-03-16T20:34:46.338Z,3.10
2023-03-16T20:37:23.787Z,4.30
2023-03-16T20:39:51.843Z,3.33
2023-03-16T20:42:19.674Z,4.15
2023-03-16T20:44:46.598Z,4.10
2023-03-16T20:47:19.702Z,4.07
2023-03-16T20:49:46.276Z,3.65
2023-03-16T20:52:25.104Z,4.22
2023-03-16T20:54:51.756Z,3.58
2023-03-16T20:57:24.201Z,4.45
2023-03-16T20:59:51.874Z,3.67
2023-03-16T21:02:28.622Z,4.20
2023-03-16T21:04:56.940Z,4.10
2023-03-16T21:07:23.623Z,4.50
2023-03-16T21:09:50.984Z,4.00
2023-03-16T21:12:24.199Z,4.63
2023-03-16T21:14:51.571Z,4.40
2023-03-16T21:17:25.887Z,3.78
2023-03-16T21:19:52.914Z,4.35
2023-03-16T21:22:40.241Z,5.05
2023-03-16T21:25:07.393Z,4.38
2023-03-16T21:27:34.394Z,4.25
2023-03-16T21:30:07.310Z,4.15
2023-03-16T21:32:34.033Z,5.05
2023-03-16T21:35:01.465Z,3.90
2023-03-16T21:37:28.084Z,4.70
2023-03-16T21:39:54.639Z,4.90
2023-03-16T21:42:21.666Z,4.68
2023-03-16T21:44:48.249Z,4.70
2023-03-16T21:47:28.514Z,4.72
2023-03-16T21:49:55.631Z,4.90
2023-03-16T21:52:23.893Z,4.43
2023-03-16T21:54:51.955Z,4.68
2023-03-16T21:57:19.878Z,4.97
2023-03-16T21:59:46.993Z,4.53
2023-03-16T22:02:21.064Z,4.32
2023-03-16T22:04:48.309Z,4.82
2023-03-16T22:07:15.356Z,4.45
2023-03-16T22:09:42.485Z,4.30
2023-03-16T22:12:13.290Z,4.75
2023-03-16T22:14:40.445Z,4.60
2023-03-16T22:17:08.439Z,4.63
2023-03-16T22:19:35.157Z,4.38
2023-03-16T22:22:01.737Z,4.40
2023-03-16T22:24:30.822Z,4.32
2023-03-16T22:26:57.946Z,4.10
2023-03-16T22:29:25.184Z,4.22
2023-03-16T22:31:55.593Z,3.95
2023-03-16T22:34:29.228Z,4.15
2023-03-16T22:36:56.770Z,4.47
2023-03-16T22:39:23.945Z,3.85
2023-03-16T22:41:51.023Z,4.07
2023-03-16T22:44:22.473Z,4.18
2023-03-16T22:46:50.210Z,3.83
2023-03-16T22:49:26.148Z,4.07
2023-03-16T22:51:55.436Z,4.13
2023-03-16T22:54:25.241Z,3.50
2023-03-16T22:56:52.743Z,4.05
2023-03-16T22:59:22.149Z,3.88
2023-03-16T23:01:49.707Z,3.38
2023-03-16T23:04:19.920Z,4.43
2023-03-16T23:06:51.362Z,3.58
2023-03-16T23:11:46.230Z,3.53
2023-03-16T23:14:20.213Z,4.30
2023-03-16T23:16:48.366Z,3.50
2023-03-16T23:19:24.813Z,3.60
2023-03-16T23:21:54.437Z,3.35
2023-03-16T23:24:21.786Z,3.83
2023-03-16T23:26:49.019Z,3.35
2023-03-16T23:29:15.592Z,3.17
2023-03-16T23:31:42.437Z,3.40
2023-03-16T23:34:11.120Z,2.90
2023-03-16T23:36:37.729Z,3.45
2023-03-16T23:39:04.820Z,3.67
2023-03-16T23:41:31.775Z,3.30
2023-03-16T23:43:58.385Z,3.85
2023-03-16T23:46:28.097Z,3.13
2023-03-16T23:48:56.862Z,2.85
2023-03-16T23:51:36.469Z,3.20
2023-03-16T23:54:14.135Z,3.30
2023-03-16T23:56:40.859Z,3.00
2023-03-16T23:59:07.406Z,3.40
